createdAt,value
2019-05-12T00:02:59.890Z,0
2019-05-12T00:06:08.493Z,0
2019-05-12T00:09:15.167Z,0
2019-05-12T00:12:21.556Z,0
2019-05-12T00:15:30.338Z,0
2019-05-12T00:18:38.992Z,0
2019-05-12T00:21:50.193Z,0
2019-05-12T00:24:58.923Z,0
2019-05-12T00:28:05.281Z,0
2019-05-12T00:31:11.411Z,0
2019-05-12T00:34:20.170Z,0
2019-05-12T00:37:28.744Z,0
2019-05-12T00:40:35.065Z,0
2019-05-12T00:46:51.797Z,0
2019-05-12T00:50:00.110Z,0
2019-05-12T00:53:08.575Z,0
2019-05-12T00:56:15.103Z,0
2019-05-12T00:59:22.091Z,0
2019-05-12T01:02:30.606Z,0
2019-05-12T01:08:45.813Z,0
2019-05-12T01:11:52.078Z,0
2019-05-12T01:15:00.846Z,0
2019-05-12T01:18:09.982Z,0
2019-05-12T01:21:24.442Z,0
2019-05-12T01:24:33.016Z,0
2019-05-12T01:30:49.740Z,0
2019-05-12T01:33:55.871Z,0
2019-05-12T01:37:02.177Z,0
2019-05-12T01:40:11.214Z,0
2019-05-12T01:43:22.140Z,0
2019-05-12T01:46:30.763Z,0
2019-05-12T01:49:39.416Z,0
2019-05-12T01:52:47.695Z,0
2019-05-12T01:55:54.169Z,0
2019-05-12T01:59:00.895Z,0
2019-05-12T02:02:09.811Z,0
2019-05-12T02:05:18.162Z,0
2019-05-12T02:08:24.563Z,0
2019-05-12T02:11:31.903Z,0
2019-05-12T02:14:40.612Z,0
2019-05-12T02:17:49.338Z,0
2019-05-12T02:20:57.674Z,0
2019-05-12T02:24:04.041Z,0
2019-05-12T02:27:11.332Z,0
2019-05-12T02:30:21.978Z,0
2019-05-12T02:33:28.164Z,0
2019-05-12T02:36:37.381Z,0
2019-05-12T02:39:47.199Z,0
2019-05-12T02:42:56.671Z,0
2019-05-12T02:46:06.630Z,0.1
2019-05-12T02:49:16.020Z,0.1
2019-05-12T02:52:26.056Z,0.2
2019-05-12T02:55:36.829Z,0.3
2019-05-12T02:58:46.548Z,0.5
2019-05-12T03:01:56.195Z,0.7
2019-05-12T03:05:06.067Z,1
2019-05-12T03:08:15.916Z,1.3
2019-05-12T03:11:25.358Z,1.9
2019-05-12T03:14:41.065Z,2.6
2019-05-12T03:17:50.436Z,4.6
2019-05-12T03:20:57.788Z,6.8
2019-05-12T03:24:08.187Z,7.2
2019-05-12T03:27:20.557Z,12.2
2019-05-12T03:30:43.166Z,42.3
2019-05-12T03:34:20.793Z,11.3
2019-05-12T03:37:37.723Z,15.8
2019-05-12T03:40:47.985Z,32.8
2019-05-12T03:43:57.380Z,37.6
2019-05-12T03:50:16.489Z,52.6
2019-05-12T03:53:26.442Z,54
2019-05-12T03:56:36.625Z,59
2019-05-12T03:59:46.244Z,55.1
2019-05-12T04:02:56.226Z,75.6
2019-05-12T04:06:05.843Z,97.2
2019-05-12T04:09:14.651Z,44.5
2019-05-12T04:12:25.060Z,43.4
2019-05-12T04:15:34.130Z,108
2019-05-12T04:18:40.871Z,83.5
2019-05-12T04:21:47.858Z,123.1
2019-05-12T04:24:57.527Z,82.8
2019-05-12T04:28:07.286Z,63.4
2019-05-12T04:31:16.552Z,78.8
2019-05-12T04:34:26.233Z,132.5
2019-05-12T04:37:35.895Z,74.5
2019-05-12T04:40:45.685Z,88.2
2019-05-12T04:43:54.832Z,136.1
2019-05-12T04:47:05.499Z,139.7
2019-05-12T04:50:15.164Z,113.8
2019-05-12T04:53:24.761Z,139.7
2019-05-12T04:56:31.429Z,131.8
2019-05-12T04:59:37.783Z,123.8
2019-05-12T05:06:00.141Z,105.8
2019-05-12T05:09:08.256Z,113
2019-05-12T05:12:16.972Z,118.8
2019-05-12T05:15:26.096Z,121
2019-05-12T05:18:34.205Z,133.9
2019-05-12T05:21:40.465Z,105.1
2019-05-12T05:27:55.838Z,118.1
2019-05-12T05:31:04.215Z,118.1
2019-05-12T05:34:10.421Z,90
2019-05-12T05:37:17.614Z,114.5
2019-05-12T05:40:35.262Z,104.4
2019-05-12T05:43:48.557Z,110.2
2019-05-12T05:47:05.057Z,126.7
2019-05-12T05:50:13.299Z,124.6
2019-05-12T05:53:24.843Z,119.5
2019-05-12T05:57:07.347Z,115.9
2019-05-12T06:00:28.367Z,101.5
2019-05-12T06:03:39.318Z,102.2
2019-05-12T06:06:58.208Z,97.2
2019-05-12T06:10:07.037Z,96.5
2019-05-12T06:13:16.232Z,91.8
2019-05-12T06:16:27.398Z,85
2019-05-12T06:19:35.965Z,91.8
2019-05-12T06:22:53.476Z,81.4
2019-05-12T06:26:06.886Z,91.1
2019-05-12T06:29:26.488Z,81.7
2019-05-12T06:32:34.808Z,74.5
2019-05-12T06:38:56.635Z,67
2019-05-12T06:42:19.185Z,71.3
2019-05-12T06:45:46.444Z,75.6
2019-05-12T06:48:55.011Z,71.3
2019-05-12T06:52:09.473Z,72.7
2019-05-12T06:58:36.800Z,69.8
2019-05-12T07:01:49.704Z,65.9
2019-05-12T07:08:37.988Z,67.7
2019-05-12T07:12:08.784Z,70.9
2019-05-12T07:15:17.651Z,70.9
2019-05-12T07:18:39.392Z,70.2
2019-05-12T07:22:00.216Z,69.1
2019-05-12T07:25:13.204Z,68.4
2019-05-12T07:28:24.383Z,68.4
2019-05-12T07:31:30.634Z,67.7
2019-05-12T07:34:36.892Z,71.6
2019-05-12T07:37:45.414Z,68.4
2019-05-12T07:40:53.625Z,69.8
2019-05-12T07:47:25.211Z,65.5
2019-05-12T07:50:37.315Z,60.1
2019-05-12T07:54:00.480Z,60.5
2019-05-12T07:57:19.855Z,60.8
2019-05-12T08:00:28.886Z,60.1
2019-05-12T08:03:37.580Z,60.5
2019-05-12T08:06:49.278Z,58
2019-05-12T08:09:58.033Z,59
2019-05-12T08:13:06.767Z,46.4
2019-05-12T08:16:25.475Z,53.3
2019-05-12T08:19:44.228Z,54.4
2019-05-12T08:22:50.543Z,45.9
2019-05-12T08:25:57.119Z,52.2
2019-05-12T08:29:16.714Z,46.4
2019-05-12T08:32:30.281Z,49.7
2019-05-12T08:35:43.433Z,50
2019-05-12T08:38:49.932Z,44.1
2019-05-12T08:41:56.608Z,45.9
2019-05-12T08:45:29.633Z,47.9
2019-05-12T08:48:45.775Z,46.4
2019-05-12T08:52:05.107Z,45.2
2019-05-12T08:55:16.868Z,44.5
2019-05-12T08:58:56.310Z,44.5
2019-05-12T09:02:15.159Z,41.9
2019-05-12T09:05:38.031Z,40.5
2019-05-12T09:08:54.042Z,40.3
2019-05-12T09:12:00.607Z,39.2
2019-05-12T09:15:10.810Z,38.3
2019-05-12T09:18:20.818Z,38.5
2019-05-12T09:21:39.319Z,36.7
2019-05-12T09:24:47.181Z,37.6
2019-05-12T09:27:55.394Z,37.4
2019-05-12T09:31:03.552Z,37.8
2019-05-12T09:34:18.885Z,36.4
2019-05-12T09:37:38.565Z,38.5
2019-05-12T09:40:52.702Z,36.4
2019-05-12T09:44:07.889Z,39.6
2019-05-12T09:47:30.264Z,36.4
2019-05-12T09:50:37.934Z,38.5
2019-05-12T09:53:57.312Z,36.9
2019-05-12T09:57:05.518Z,37.8
2019-05-12T10:00:14.362Z,38.7
2019-05-12T10:03:20.615Z,39.8
2019-05-12T10:06:27.664Z,38.3
2019-05-12T10:09:35.863Z,39.6
2019-05-12T10:12:55.392Z,41.4
2019-05-12T10:16:13.302Z,42.7
2019-05-12T10:19:19.504Z,41.4
2019-05-12T10:22:40.146Z,42.3
2019-05-12T10:25:49.236Z,42.7
2019-05-12T10:29:30.467Z,45.4
2019-05-12T10:32:37.923Z,42.8
2019-05-12T10:35:46.751Z,42.8
2019-05-12T10:38:55.038Z,43.4
2019-05-12T10:42:01.383Z,41.8
2019-05-12T10:45:20.664Z,37.8
2019-05-12T10:48:29.121Z,36.2
2019-05-12T10:51:37.439Z,34.4
2019-05-12T10:58:09.020Z,35.3
2019-05-12T11:01:16.412Z,35.5
2019-05-12T11:04:45.299Z,34.7
2019-05-12T11:07:51.355Z,34.6
2019-05-12T11:11:05.933Z,35.5
2019-05-12T11:14:14.090Z,34.6
2019-05-12T11:17:20.426Z,34.4
2019-05-12T11:20:28.165Z,35.6
2019-05-12T11:23:36.837Z,38.7
2019-05-12T11:26:45.152Z,37.1
2019-05-12T11:29:54.780Z,37.3
2019-05-12T11:33:05.451Z,36.4
2019-05-12T11:36:16.450Z,36.4
2019-05-12T11:39:24.854Z,42.5
2019-05-12T11:42:33.427Z,36.9
2019-05-12T11:45:39.863Z,44.5
2019-05-12T11:48:55.020Z,33.8
2019-05-12T11:52:20.845Z,38.7
2019-05-12T11:55:36.739Z,32.4
2019-05-12T11:58:55.934Z,31.7
2019-05-12T12:02:01.995Z,28.8
2019-05-12T12:05:08.553Z,28.1
2019-05-12T12:08:17.386Z,30.6
2019-05-12T12:11:30.679Z,29
2019-05-12T12:14:51.170Z,29.7
2019-05-12T12:18:12.927Z,28.8
2019-05-12T12:21:23.504Z,35.6
2019-05-12T12:24:34.433Z,38.7
2019-05-12T12:31:08.544Z,34.9
2019-05-12T12:34:34.361Z,37.6
2019-05-12T12:37:40.422Z,39.4
2019-05-12T12:40:47.209Z,26.5
2019-05-12T12:43:55.927Z,25.9
2019-05-12T12:47:04.657Z,38.3
2019-05-12T12:50:10.792Z,40.3
2019-05-12T12:53:17.203Z,24.5
2019-05-12T12:56:34.732Z,23.6
2019-05-12T12:59:55.218Z,23.4
2019-05-12T13:03:03.509Z,35.3
2019-05-12T13:06:09.806Z,36.2
2019-05-12T13:09:27.122Z,39.1
2019-05-12T13:12:38.367Z,36.7
2019-05-12T13:15:46.835Z,36.5
2019-05-12T13:18:55.124Z,37.1
2019-05-12T13:22:03.562Z,35.6
2019-05-12T13:25:14.012Z,36.7
2019-05-12T13:28:27.772Z,37.6
2019-05-12T13:31:36.296Z,37.1
2019-05-12T13:34:44.280Z,35.5
2019-05-12T13:38:02.348Z,24.1
2019-05-12T13:41:22.027Z,36.9
2019-05-12T13:44:44.286Z,36.7
2019-05-12T13:47:50.346Z,25.6
2019-05-12T13:51:17.588Z,37.1
2019-05-12T13:54:34.623Z,37.3
2019-05-12T13:57:59.518Z,34.9
2019-05-12T14:01:25.449Z,34.9
2019-05-12T14:04:47.290Z,34.6
2019-05-12T14:11:06.161Z,21.9
2019-05-12T14:14:17.903Z,29.5
2019-05-12T14:17:26.412Z,29.2
2019-05-12T14:20:35.102Z,28.3
2019-05-12T14:23:43.383Z,30.2
2019-05-12T14:26:54.681Z,21
2019-05-12T14:30:16.648Z,31
2019-05-12T14:33:29.703Z,22.6
2019-05-12T14:36:45.753Z,28.3
2019-05-12T14:39:55.512Z,28.3
2019-05-12T14:43:04.238Z,22
2019-05-12T14:46:15.313Z,19.4
2019-05-12T14:49:34.468Z,20.2
2019-05-12T14:52:40.854Z,17.2
2019-05-12T14:55:47.171Z,16.7
2019-05-12T14:59:05.268Z,19.1
2019-05-12T15:02:13.443Z,21
2019-05-12T15:05:19.745Z,20.2
2019-05-12T15:08:44.835Z,16
2019-05-12T15:11:50.969Z,13.8
2019-05-12T15:14:57.387Z,12.8
2019-05-12T15:18:17.256Z,11.6
2019-05-12T15:21:35.293Z,10.7
2019-05-12T15:24:41.384Z,10
2019-05-12T15:27:51.133Z,9.6
2019-05-12T15:31:00.266Z,9.3
2019-05-12T15:34:06.735Z,8.5
2019-05-12T15:37:15.767Z,8.1
2019-05-12T15:40:24.292Z,7.7
2019-05-12T15:43:35.634Z,7.1
2019-05-12T15:46:56.585Z,6.3
2019-05-12T15:50:05.195Z,5.8
2019-05-12T15:53:28.676Z,5.3
2019-05-12T15:56:34.679Z,4.8
2019-05-12T15:59:40.909Z,4.1
2019-05-12T16:06:01.228Z,3.3
2019-05-12T16:09:19.576Z,3
2019-05-12T16:12:29.736Z,2.7
2019-05-12T16:15:39.278Z,2.4
2019-05-12T16:18:55.247Z,2.2
2019-05-12T16:22:03.459Z,2.1
2019-05-12T16:25:09.739Z,1.8
2019-05-12T16:28:33.421Z,1.6
2019-05-12T16:31:53.931Z,1.6
2019-05-12T16:35:00.092Z,1.6
2019-05-12T16:38:24.183Z,1.8
2019-05-12T16:41:35.066Z,1.9
2019-05-12T16:44:43.803Z,1.8
2019-05-12T16:47:50.151Z,1.7
2019-05-12T16:50:56.326Z,1.7
2019-05-12T16:54:04.939Z,1.5
2019-05-12T16:57:20.503Z,1.5
2019-05-12T17:00:30.433Z,1.4
2019-05-12T17:03:37.266Z,1.3
2019-05-12T17:06:49.000Z,1.2
2019-05-12T17:10:02.758Z,1.2
2019-05-12T17:13:24.324Z,1.1
2019-05-12T17:16:47.898Z,0.9
2019-05-12T17:19:56.365Z,0.8
2019-05-12T17:23:05.802Z,0.7
2019-05-12T17:26:14.487Z,0.6
2019-05-12T17:29:20.621Z,0.4
2019-05-12T17:32:26.909Z,0.3
2019-05-12T17:35:37.781Z,0.2
2019-05-12T17:42:01.900Z,0.1
2019-05-12T17:45:24.857Z,0.1
2019-05-12T17:48:30.894Z,0
2019-05-12T17:51:37.079Z,0
2019-05-12T17:54:45.913Z,0
2019-05-12T17:57:59.849Z,0
2019-05-12T18:01:06.751Z,0
2019-05-12T18:04:20.297Z,0
2019-05-12T18:07:37.398Z,0
2019-05-12T18:10:49.067Z,0
2019-05-12T18:14:09.486Z,0
2019-05-12T18:20:26.166Z,0
2019-05-12T18:23:35.769Z,0
2019-05-12T18:27:00.085Z,0
2019-05-12T18:30:19.895Z,0
2019-05-12T18:33:58.336Z,0
2019-05-12T18:37:06.662Z,0
2019-05-12T18:40:15.302Z,0
2019-05-12T18:43:24.092Z,0
2019-05-12T18:46:35.987Z,0
2019-05-12T18:49:55.709Z,0
2019-05-12T18:53:01.980Z,0
2019-05-12T18:56:25.346Z,0
2019-05-12T18:59:33.522Z,0
2019-05-12T19:02:40.026Z,0
2019-05-12T19:05:46.911Z,0
2019-05-12T19:08:55.631Z,0
2019-05-12T19:12:01.762Z,0
2019-05-12T19:15:23.198Z,0
2019-05-12T19:18:39.573Z,0
2019-05-12T19:22:13.911Z,0
2019-05-12T19:25:24.905Z,0
2019-05-12T19:28:36.005Z,0
2019-05-12T19:32:00.007Z,0
2019-05-12T19:35:24.668Z,0
2019-05-12T19:38:30.754Z,0
2019-05-12T19:41:43.455Z,0
2019-05-12T19:44:55.531Z,0
2019-05-12T19:48:07.123Z,0
2019-05-12T19:51:30.390Z,0
2019-05-12T19:54:39.922Z,0
2019-05-12T19:57:50.907Z,0
2019-05-12T20:00:58.079Z,0
2019-05-12T20:04:06.717Z,0
2019-05-12T20:07:12.933Z,0
2019-05-12T20:10:19.713Z,0
2019-05-12T20:13:41.418Z,0
2019-05-12T20:16:49.961Z,0
2019-05-12T20:19:59.520Z,0
2019-05-12T20:23:06.598Z,0
2019-05-12T20:26:15.120Z,0
2019-05-12T20:29:36.242Z,0
2019-05-12T20:32:44.723Z,0
2019-05-12T20:35:55.470Z,0
2019-05-12T20:39:04.035Z,0
2019-05-12T20:42:26.692Z,0
2019-05-12T20:45:46.862Z,0
2019-05-12T20:52:15.230Z,0
2019-05-12T20:55:23.175Z,0
2019-05-12T20:58:48.413Z,0
2019-05-12T21:01:54.578Z,0
2019-05-12T21:05:23.571Z,0
2019-05-12T21:11:36.880Z,0
2019-05-12T21:15:45.634Z,0
2019-05-12T21:19:15.999Z,0
2019-05-12T21:22:24.317Z,0
2019-05-12T21:25:30.476Z,0
2019-05-12T21:28:50.157Z,0
2019-05-12T21:32:18.212Z,0
2019-05-12T21:35:46.530Z,0
2019-05-12T21:39:05.839Z,0
2019-05-12T21:42:18.819Z,0
2019-05-12T21:45:35.614Z,0
2019-05-12T21:48:41.799Z,0
2019-05-12T21:52:07.417Z,0
2019-05-12T21:55:28.635Z,0
2019-05-12T21:58:34.852Z,0
2019-05-12T22:01:48.384Z,0
2019-05-12T22:04:58.803Z,0
2019-05-12T22:08:26.652Z,0
2019-05-12T22:11:35.202Z,0
2019-05-12T22:14:48.480Z,0
2019-05-12T22:17:56.719Z,0
2019-05-12T22:21:09.155Z,0
2019-05-12T22:27:32.774Z,0
2019-05-12T22:30:38.909Z,0
2019-05-12T22:33:58.642Z,0
2019-05-12T22:37:09.418Z,0
2019-05-12T22:40:24.148Z,0
2019-05-12T22:43:47.601Z,0
2019-05-12T22:46:55.813Z,0
2019-05-12T22:50:04.145Z,0
2019-05-12T22:53:10.514Z,0
2019-05-12T22:56:23.579Z,0
2019-05-12T22:59:46.692Z,0
2019-05-12T23:02:54.784Z,0
2019-05-12T23:06:41.979Z,0
2019-05-12T23:09:54.342Z,0
2019-05-12T23:13:07.515Z,0
2019-05-12T23:16:29.355Z,0
2019-05-12T23:19:37.105Z,0
2019-05-12T23:22:45.616Z,0
2019-05-12T23:26:04.228Z,0
2019-05-12T23:29:10.421Z,0
2019-05-12T23:32:18.040Z,0
2019-05-12T23:35:34.721Z,0
2019-05-12T23:39:00.843Z,0
2019-05-12T23:42:10.225Z,0
2019-05-12T23:45:17.005Z,0
2019-05-12T23:48:23.273Z,0
2019-05-12T23:51:29.437Z,0
2019-05-12T23:54:37.553Z,0
2019-05-12T23:57:46.168Z,0
